Time;durP1;ratioP1;P1;durP2;ratioP2;P2;SDS_P1;SDS_P2;PMS_P1;PMS_P2;Temp;Humidity;BMP_temperature;BMP_pressure;BME280_temperature;BME280_humidity;BME280_pressure;Samples;Min_cycle;Max_cycle;Signal;HPM_P1;HPM_P2
2023/01/28 00:01:45;;;;;;;9.13;3.53;;;2.10;99.90;;;;;;5052255;28;20389;-62
2023/01/28 00:04:11;;;;;;;8.93;3.35;;;2.20;99.90;;;;;;5052925;28;20374;-62
2023/01/28 00:06:37;;;;;;;9.43;3.80;;;2.20;99.90;;;;;;5053145;28;20413;-62
2023/01/28 00:09:02;;;;;;;10.52;3.60;;;2.30;99.90;;;;;;5052203;28;20457;-62
2023/01/28 00:11:28;;;;;;;8.73;3.28;;;2.40;99.90;;;;;;5053094;28;20393;-63
2023/01/28 00:13:54;;;;;;;10.90;3.80;;;2.50;99.90;;;;;;5051616;28;20385;-63
2023/01/28 00:16:23;;;;;;;9.10;3.77;;;2.40;99.90;;;;;;5052683;28;20902;-63
2023/01/28 00:18:48;;;;;;;10.85;3.83;;;2.40;99.90;;;;;;5051575;28;20395;-65
2023/01/28 00:21:15;;;;;;;9.93;3.95;;;2.30;99.90;;;;;;5052583;28;20464;-65
2023/01/28 00:23:43;;;;;;;11.32;3.60;;;3.30;99.90;;;;;;5049815;28;20920;-60
2023/01/28 00:26:11;;;;;;;8.30;3.40;;;2.50;99.90;;;;;;5051952;28;20413;-61
2023/01/28 00:28:37;;;;;;;9.10;2.90;;;2.50;99.90;;;;;;5052710;28;20409;-61
2023/01/28 00:31:11;;;;;;;9.35;3.20;;;2.40;99.90;;;;;;5051972;28;20373;-61
2023/01/28 00:33:37;;;;;;;9.30;3.40;;;2.40;99.90;;;;;;5052502;28;20934;-62
2023/01/28 00:36:05;;;;;;;9.67;3.53;;;2.40;99.90;;;;;;5051508;28;20448;-62
2023/01/28 00:38:31;;;;;;;7.75;3.40;;;2.50;99.90;;;;;;5052338;28;20457;-61
2023/01/28 00:41:08;;;;;;;8.10;3.10;;;3.40;99.90;;;;;;5051682;28;20392;-61
2023/01/28 00:43:33;;;;;;;8.00;2.97;;;2.40;99.90;;;;;;5050755;28;20373;-61
2023/01/28 00:45:59;;;;;;;7.80;2.80;;;2.40;99.90;;;;;;5051333;28;20996;-61
2023/01/28 00:48:24;;;;;;;9.38;3.00;;;2.40;99.90;;;;;;5052302;28;20373;-61
2023/01/28 00:50:50;;;;;;;8.00;2.90;;;2.30;99.90;;;;;;5051502;28;20409;-61
2023/01/28 00:53:16;;;;;;;7.30;2.70;;;2.30;99.90;;;;;;5052559;28;20384;-61
2023/01/28 00:55:41;;;;;;;7.20;2.80;;;2.40;99.90;;;;;;5052174;28;20470;-60
2023/01/28 00:58:07;;;;;;;8.20;2.80;;;2.40;99.90;;;;;;5051613;28;20389;-61
2023/01/28 01:00:32;;;;;;;8.27;2.60;;;2.30;99.90;;;;;;5052090;28;20827;-64
2023/01/28 01:02:58;;;;;;;8.17;2.60;;;2.20;99.90;;;;;;5051614;28;20385;-61
2023/01/28 01:05:24;;;;;;;6.70;2.25;;;2.30;99.90;;;;;;5051782;28;20881;-61
2023/01/28 01:07:50;;;;;;;7.83;2.40;;;2.30;99.90;;;;;;5050923;28;20410;-61
2023/01/28 01:10:18;;;;;;;7.38;2.80;;;3.50;99.90;;;;;;5051957;28;20401;-62
2023/01/28 01:12:46;;;;;;;8.00;3.13;;;2.40;99.90;;;;;;5050628;28;20424;-60
2023/01/28 01:15:12;;;;;;;7.40;2.58;;;2.40;99.90;;;;;;5051509;28;20886;-62
2023/01/28 01:17:40;;;;;;;7.75;2.67;;;2.40;99.90;;;;;;5051879;28;20413;-62
2023/01/28 01:20:10;;;;;;;8.63;2.47;;;2.40;99.90;;;;;;5051202;28;20379;-62
2023/01/28 01:22:36;;;;;;;7.40;2.85;;;2.50;99.90;;;;;;5048423;28;20389;-61
2023/01/28 01:25:03;;;;;;;8.25;2.80;;;2.50;99.90;;;;;;5050631;28;20396;-62
2023/01/28 01:27:30;;;;;;;8.30;2.33;;;2.60;99.90;;;;;;5051900;28;20439;-62
2023/01/28 01:29:55;;;;;;;7.85;2.40;;;2.40;99.90;;;;;;5050607;28;20559;-62
2023/01/28 01:32:21;;;;;;;9.23;3.20;;;2.40;99.90;;;;;;5051545;28;20500;-62
2023/01/28 01:34:47;;;;;;;7.97;2.63;;;2.50;99.90;;;;;;5050746;28;20969;-61
2023/01/28 01:37:13;;;;;;;7.50;2.47;;;2.50;99.90;;;;;;5051865;28;20390;-62
2023/01/28 01:39:39;;;;;;;7.53;3.10;;;2.40;99.90;;;;;;5052044;28;20471;-62
2023/01/28 01:42:05;;;;;;;8.45;3.00;;;2.30;99.90;;;;;;5051084;28;20708;-62
2023/01/28 01:45:05;;;;;;;9.77;3.20;;;2.30;99.90;;;;;;5051525;28;20392;-62
2023/01/28 01:47:34;;;;;;;8.15;2.50;;;2.30;99.90;;;;;;5051794;28;20392;-62
2023/01/28 01:50:19;;;;;;;7.45;2.30;;;2.40;99.90;;;;;;5050716;28;20392;-62
2023/01/28 01:52:48;;;;;;;7.75;2.83;;;2.40;99.90;;;;;;5051133;28;20380;-60
2023/01/28 01:55:18;;;;;;;7.90;2.72;;;2.40;99.90;;;;;;5051477;28;20993;-62
2023/01/28 01:57:45;;;;;;;7.32;2.65;;;2.40;99.90;;;;;;5051294;28;20472;-60
2023/01/28 02:00:10;;;;;;;9.30;2.75;;;2.40;99.90;;;;;;5051221;28;20390;-62
2023/01/28 02:02:40;;;;;;;10.32;2.97;;;2.50;99.90;;;;;;5051029;28;20389;-61
2023/01/28 02:05:07;;;;;;;7.80;2.80;;;2.20;99.90;;;;;;5050819;28;20726;-62
2023/01/28 02:07:34;;;;;;;8.48;2.60;;;2.50;99.90;;;;;;5051459;28;20443;-62
2023/01/28 02:09:59;;;;;;;7.22;2.63;;;2.30;99.90;;;;;;5049991;28;20385;-62
2023/01/28 02:12:30;;;;;;;7.50;2.80;;;2.30;99.90;;;;;;5051215;28;20377;-62
2023/01/28 02:15:01;;;;;;;8.30;3.40;;;2.40;99.90;;;;;;5050277;28;20747;-62
2023/01/28 02:17:27;;;;;;;7.75;2.60;;;2.40;99.90;;;;;;5050513;28;20385;-62
2023/01/28 02:20:06;;;;;;;7.45;2.42;;;2.40;99.90;;;;;;5050443;28;20389;-62
2023/01/28 02:23:03;;;;;;;7.70;2.80;;;2.40;99.90;;;;;;5050927;28;20381;-62
2023/01/28 02:25:56;;;;;;;8.40;2.90;;;2.50;99.90;;;;;;5049910;28;20417;-61
2023/01/28 02:28:53;;;;;;;6.28;2.45;;;2.40;99.90;;;;;;5030887;28;20808;-61
2023/01/28 02:31:28;;;;;;;7.43;2.78;;;2.40;99.90;;;;;;5025638;28;20399;-60
2023/01/28 02:34:04;;;;;;;8.75;2.60;;;2.40;99.90;;;;;;5030141;28;20371;-60
2023/01/28 02:37:02;;;;;;;7.82;2.60;;;2.50;99.90;;;;;;5030547;28;20840;-60
2023/01/28 02:39:32;;;;;;;8.15;2.83;;;2.50;99.90;;;;;;5030744;28;20395;-61
2023/01/28 02:42:05;;;;;;;6.97;2.90;;;2.40;99.90;;;;;;5029805;28;20576;-60
2023/01/28 02:44:31;;;;;;;8.40;3.25;;;2.30;99.90;;;;;;5030852;28;20398;-61
2023/01/28 02:49:53;;;;;;;7.20;2.60;;;2.30;99.90;;;;;;5050192;28;20385;-60
2023/01/28 02:55:49;;;;;;;8.05;2.47;;;2.50;99.90;;;;;;5033971;28;20462;-61
2023/01/28 02:58:32;;;;;;;8.73;3.20;;;2.30;99.90;;;;;;5030433;28;20395;-60
2023/01/28 03:01:26;;;;;;;9.10;2.60;;;2.20;99.90;;;;;;5029704;28;20405;-60
2023/01/28 03:04:09;;;;;;;7.07;2.67;;;2.20;1.00;;;;;;5029346;28;20387;-60
2023/01/28 03:06:42;;;;;;;8.20;3.13;;;2.30;1.00;;;;;;5029893;28;20456;-60
2023/01/28 03:09:23;;;;;;;9.43;3.57;;;2.10;1.00;;;;;;5038848;28;20380;-60
2023/01/28 03:38:47;;;;;;;10.40;3.97;;;2.40;1.00;;;;;;5049582;28;20376;-60
2023/01/28 03:41:20;;;;;;;11.55;4.10;;;2.50;1.00;;;;;;5049853;28;20397;-61
2023/01/28 03:43:46;;;;;;;10.20;4.50;;;2.40;1.00;;;;;;5049393;28;20377;-60
2023/01/28 03:46:12;;;;;;;12.55;4.72;;;2.40;1.00;;;;;;5049834;28;20392;-61
2023/01/28 03:48:38;;;;;;;10.20;3.70;;;2.50;1.00;;;;;;5050005;28;20381;-61
2023/01/28 03:51:03;;;;;;;9.65;3.63;;;3.50;1.00;;;;;;5048848;28;20890;-61
2023/01/28 03:53:29;;;;;;;10.00;3.97;;;2.50;1.00;;;;;;5049474;28;20392;-60
2023/01/28 03:55:58;;;;;;;9.87;3.80;;;2.40;1.00;;;;;;5048786;28;20417;-62
2023/01/28 03:58:25;;;;;;;10.25;4.00;;;2.40;1.00;;;;;;5049442;28;20488;-62
2023/01/28 04:00:52;;;;;;;10.90;3.33;;;2.50;1.00;;;;;;5048702;28;20409;-62
2023/01/28 04:03:19;;;;;;;12.07;4.68;;;2.60;1.00;;;;;;5049187;28;20873;-61
2023/01/28 04:06:06;;;;;;;10.20;3.78;;;2.40;1.00;;;;;;5048807;28;20408;-60
2023/01/28 04:08:32;;;;;;;9.68;4.18;;;2.50;1.00;;;;;;5049154;28;20369;-61
2023/01/28 04:11:14;;;;;;;11.60;4.10;;;2.40;1.00;;;;;;5047944;28;20384;-61
2023/01/28 04:13:40;;;;;;;9.95;4.20;;;2.40;1.00;;;;;;5048743;28;20469;-61
2023/01/28 04:16:07;;;;;;;10.60;4.10;;;2.50;1.00;;;;;;5047772;28;20483;-61
2023/01/28 04:18:33;;;;;;;9.23;3.60;;;2.70;1.00;;;;;;5048729;28;21030;-61
2023/01/28 04:20:58;;;;;;;9.20;3.88;;;2.60;1.00;;;;;;5047867;28;20381;-61
2023/01/28 04:23:24;;;;;;;9.63;3.20;;;2.50;1.00;;;;;;5048920;28;20839;-60
2023/01/28 04:25:50;;;;;;;8.23;3.20;;;2.50;1.00;;;;;;5048105;28;20471;-61
2023/01/28 04:28:16;;;;;;;9.97;3.67;;;2.50;1.00;;;;;;5049374;28;20454;-62
2023/01/28 04:30:41;;;;;;;10.57;3.73;;;2.60;1.00;;;;;;5049688;28;20381;-60
2023/01/28 04:33:07;;;;;;;10.45;3.80;;;2.60;1.00;;;;;;5048723;28;21020;-62
2023/01/28 04:35:32;;;;;;;10.30;4.10;;;2.50;1.00;;;;;;5049148;28;20436;-60
2023/01/28 04:37:58;;;;;;;9.50;3.87;;;2.50;1.00;;;;;;5048857;28;20885;-62
2023/01/28 04:40:24;;;;;;;12.98;4.55;;;2.50;38.80;;;;;;5049458;28;20378;-61
2023/01/28 04:42:56;;;;;;;11.17;4.03;;;2.70;1.00;;;;;;5048396;28;20497;-62
2023/01/28 04:45:22;;;;;;;9.80;4.20;;;3.40;25.70;;;;;;5049123;28;20434;-61
2023/01/28 04:47:47;;;;;;;10.95;4.28;;;2.60;1.00;;;;;;5051345;28;20382;-62
2023/01/28 04:50:13;;;;;;;8.87;3.50;;;2.60;1.00;;;;;;5052835;28;20374;-62
2023/01/28 04:52:39;;;;;;;10.45;3.90;;;2.60;32.10;;;;;;5053426;28;20381;-62
2023/01/28 04:55:05;;;;;;;10.75;4.00;;;2.50;60.40;;;;;;5052262;28;21005;-63
2023/01/28 04:57:31;;;;;;;12.05;4.40;;;2.50;99.90;;;;;;5052740;28;20846;-62
2023/01/28 04:59:56;;;;;;;12.18;4.20;;;2.40;99.90;;;;;;5052350;28;20373;-61
2023/01/28 05:02:22;;;;;;;10.70;4.00;;;2.40;99.90;;;;;;5052610;28;20856;-62
2023/01/28 05:04:48;;;;;;;10.30;3.85;;;2.50;1.00;;;;;;5052182;28;20382;-61
2023/01/28 05:07:13;;;;;;;10.65;4.50;;;3.20;1.00;;;;;;5050983;28;20393;-60
2023/01/28 05:09:39;;;;;;;10.73;4.10;;;2.30;44.90;;;;;;5052546;28;21040;-61
2023/01/28 05:12:05;;;;;;;9.55;4.40;;;2.20;99.90;;;;;;5052261;28;20696;-61
2023/01/28 05:14:30;;;;;;;11.73;4.53;;;2.20;1.00;;;;;;5052455;28;20393;-63
2023/01/28 05:16:56;;;;;;;10.33;4.50;;;2.10;99.90;;;;;;5051563;28;20408;-63
2023/01/28 05:19:21;;;;;;;10.57;4.35;;;2.20;99.90;;;;;;5052377;28;20432;-61
2023/01/28 05:21:47;;;;;;;11.10;4.73;;;2.60;98.40;;;;;;5052359;28;20865;-61
2023/01/28 05:24:13;;;;;;;9.75;4.32;;;2.30;99.90;;;;;;5052630;28;20523;-61
2023/01/28 05:26:39;;;;;;;12.50;4.75;;;2.40;1.00;;;;;;5052261;28;20500;-63
2023/01/28 05:29:04;;;;;;;11.60;4.93;;;2.30;99.90;;;;;;5051357;28;20377;-62
2023/01/28 05:31:30;;;;;;;14.00;5.10;;;2.40;1.00;;;;;;5052660;28;20382;-61
2023/01/28 05:33:55;;;;;;;10.93;5.18;;;2.50;1.00;;;;;;5051777;28;20381;-62
2023/01/28 05:36:21;;;;;;;11.60;4.97;;;2.50;1.00;;;;;;5052255;28;20393;-61
2023/01/28 05:38:46;;;;;;;11.70;5.60;;;2.50;1.00;;;;;;5051551;28;20394;-60
2023/01/28 05:41:12;;;;;;;11.68;5.10;;;2.60;1.00;;;;;;5051783;28;20378;-61
2023/01/28 05:43:38;;;;;;;13.33;4.73;;;2.60;99.90;;;;;;5052115;28;20385;-61
2023/01/28 05:46:03;;;;;;;13.30;4.60;;;2.60;1.00;;;;;;5051129;28;20384;-61
2023/01/28 05:48:29;;;;;;;13.73;5.30;;;2.70;99.90;;;;;;5051646;28;20783;-63
2023/01/28 05:50:54;;;;;;;10.90;4.37;;;2.50;1.00;;;;;;5050941;28;20930;-61
2023/01/28 05:53:20;;;;;;;10.27;4.13;;;2.50;1.00;;;;;;5051752;28;20396;-61
2023/01/28 05:55:52;;;;;;;11.98;5.53;;;2.50;95.30;;;;;;5050797;28;20488;-59
2023/01/28 05:58:18;;;;;;;10.38;4.50;;;2.50;86.90;;;;;;5050966;28;20417;-61
2023/01/28 06:00:44;;;;;;;12.00;4.93;;;2.50;99.90;;;;;;5051025;28;20461;-60
2023/01/28 06:03:09;;;;;;;12.20;5.17;;;3.60;99.90;;;;;;5050473;28;20477;-60
2023/01/28 06:05:35;;;;;;;10.32;4.72;;;3.00;99.90;;;;;;5051326;28;20432;-61
2023/01/28 06:08:01;;;;;;;10.35;4.10;;;2.50;1.00;;;;;;5048373;28;20426;-60
2023/01/28 06:10:26;;;;;;;10.70;4.53;;;2.60;1.00;;;;;;5065175;28;20380;-60
2023/01/28 06:12:52;;;;;;;10.48;4.68;;;2.60;1.00;;;;;;5068414;28;20784;-60
2023/01/28 06:15:17;;;;;;;12.30;4.80;;;2.60;1.00;;;;;;5070724;28;20808;-61
2023/01/28 06:17:43;;;;;;;10.80;4.53;;;2.50;28.90;;;;;;5048564;28;20397;-60
2023/01/28 06:20:09;;;;;;;12.82;5.63;;;3.00;99.90;;;;;;5045090;28;20416;-61
2023/01/28 06:22:35;;;;;;;11.80;4.88;;;2.60;90.20;;;;;;5042072;28;20410;-61
2023/01/28 06:25:01;;;;;;;11.60;5.70;;;2.50;99.90;;;;;;5042408;28;20834;-60
2023/01/28 06:27:26;;;;;;;10.70;4.20;;;2.50;99.90;;;;;;5042145;28;20483;-62
2023/01/28 06:29:52;;;;;;;11.33;5.10;;;2.50;1.00;;;;;;5037886;28;20386;-61
2023/01/28 06:32:18;;;;;;;10.75;4.50;;;2.60;1.00;;;;;;5049732;28;20411;-60
2023/01/28 06:34:43;;;;;;;13.93;5.38;;;2.50;99.90;;;;;;5034798;28;20410;-61
2023/01/28 06:37:12;;;;;;;14.00;5.47;;;3.60;1.00;;;;;;5039903;28;20404;-60
2023/01/28 06:39:38;;;;;;;11.98;5.10;;;2.70;99.90;;;;;;5035188;28;20399;-60
2023/01/28 06:42:04;;;;;;;13.70;5.25;;;2.50;99.90;;;;;;5038625;28;20403;-60
2023/01/28 06:44:29;;;;;;;11.00;4.72;;;2.50;99.90;;;;;;5045870;28;20486;-61
2023/01/28 06:46:55;;;;;;;13.60;5.70;;;2.40;1.00;;;;;;5044899;28;20385;-61
2023/01/28 06:49:21;;;;;;;12.90;5.23;;;2.40;38.10;;;;;;5047555;28;20394;-59
2023/01/28 06:51:47;;;;;;;11.65;5.80;;;2.40;99.90;;;;;;5036051;28;20402;-60
2023/01/28 06:54:13;;;;;;;13.63;5.55;;;3.20;99.90;;;;;;5034903;28;20422;-61
2023/01/28 06:56:38;;;;;;;13.63;5.68;;;3.00;99.90;;;;;;5056209;28;20407;-60
2023/01/28 06:59:04;;;;;;;14.63;6.27;;;2.40;99.90;;;;;;5059635;28;20474;-61
2023/01/28 07:01:30;;;;;;;13.70;5.90;;;2.50;99.90;;;;;;5032703;28;20403;-54
2023/01/28 07:03:56;;;;;;;16.60;6.73;;;2.40;1.00;;;;;;5041374;28;20404;-60
2023/01/28 07:06:22;;;;;;;12.50;5.25;;;2.40;34.60;;;;;;5043715;28;20405;-61
2023/01/28 07:08:48;;;;;;;14.82;5.95;;;2.40;45.90;;;;;;5036003;28;20389;-59
2023/01/28 07:11:14;;;;;;;13.80;6.50;;;2.60;99.90;;;;;;5033155;28;20402;-61
2023/01/28 07:13:40;;;;;;;12.20;5.55;;;2.60;99.90;;;;;;5033612;28;20407;-60
2023/01/28 07:16:06;;;;;;;11.97;5.40;;;2.50;99.90;;;;;;5041516;28;20424;-62
2023/01/28 07:18:32;;;;;;;12.48;5.18;;;2.60;99.90;;;;;;5034772;28;20816;-60
2023/01/28 07:20:58;;;;;;;15.07;6.00;;;2.70;1.00;;;;;;5036027;28;20469;-60
2023/01/28 07:23:23;;;;;;;12.97;5.37;;;2.60;1.00;;;;;;5038068;28;20515;-61
2023/01/28 07:25:49;;;;;;;13.00;5.80;;;2.70;99.90;;;;;;5037172;28;20415;-59
2023/01/28 07:28:20;;;;;;;12.93;5.25;;;2.80;1.00;;;;;;5049268;28;20389;-61
2023/01/28 07:30:47;;;;;;;17.48;5.70;;;2.80;1.00;;;;;;5031068;28;20934;-61
2023/01/28 07:33:13;;;;;;;10.75;5.68;;;2.80;1.00;;;;;;5042338;28;20382;-61
2023/01/28 07:35:39;;;;;;;13.10;5.07;;;2.70;99.90;;;;;;5041637;28;20437;-59
2023/01/28 07:38:04;;;;;;;12.98;5.93;;;2.70;99.90;;;;;;5037661;28;20499;-60
2023/01/28 07:40:30;;;;;;;12.57;6.80;;;2.60;1.00;;;;;;5042113;28;20458;-60
2023/01/28 07:42:56;;;;;;;12.50;5.80;;;3.40;99.90;;;;;;5034781;28;20395;-59
2023/01/28 07:45:23;;;;;;;12.97;5.80;;;2.60;1.00;;;;;;5029458;28;20407;-60
2023/01/28 07:48:00;;;;;;;12.73;6.22;;;2.80;1.00;;;;;;5031839;28;20891;-60
2023/01/28 07:50:28;;;;;;;12.38;5.57;;;2.80;99.90;;;;;;5030434;28;20446;-60
2023/01/28 07:52:56;;;;;;;15.35;6.35;;;2.80;99.90;;;;;;5029295;28;20424;-59
2023/01/28 07:55:22;;;;;;;14.43;6.03;;;2.90;25.50;;;;;;5035333;28;20414;-60
2023/01/28 07:57:53;;;;;;;13.80;6.30;;;2.80;1.00;;;;;;5046651;28;21229;-59
2023/01/28 08:00:20;;;;;;;12.27;5.68;;;2.90;91.60;;;;;;5030538;28;20407;-60
2023/01/28 08:02:46;;;;;;;13.30;6.00;;;2.90;99.90;;;;;;5033936;28;20494;-60
2023/01/28 08:05:20;;;;;;;14.95;6.60;;;2.90;38.40;;;;;;5036319;28;20403;-61
2023/01/28 08:07:47;;;;;;;14.75;5.72;;;3.00;1.00;;;;;;5038765;28;20496;-61
2023/01/28 08:10:16;;;;;;;14.50;5.93;;;3.00;94.30;;;;;;5039469;28;20921;-61
2023/01/28 08:13:00;;;;;;;13.30;6.10;;;2.90;99.90;;;;;;5037674;28;20401;-60
2023/01/28 08:15:27;;;;;;;13.73;6.80;;;3.00;1.60;;;;;;5051896;28;20506;-60
2023/01/28 08:17:54;;;;;;;13.40;6.53;;;2.90;1.00;;;;;;5034115;28;20529;-58
2023/01/28 08:20:19;;;;;;;15.82;6.40;;;3.00;1.00;;;;;;5032401;28;20403;-60
2023/01/28 08:22:45;;;;;;;15.10;6.65;;;3.90;1.00;;;;;;5036444;28;20390;-60
2023/01/28 08:25:10;;;;;;;13.43;6.27;;;3.10;1.00;;;;;;5033001;28;20720;-60
2023/01/28 08:27:36;;;;;;;15.15;6.20;;;3.10;99.90;;;;;;5032365;28;20536;-60
2023/01/28 08:30:02;;;;;;;15.30;7.17;;;3.20;99.90;;;;;;5034234;28;20464;-60
2023/01/28 08:32:29;;;;;;;15.68;6.88;;;3.20;1.00;;;;;;5043790;28;20399;-60
2023/01/28 08:34:55;;;;;;;15.20;7.45;;;3.30;99.90;;;;;;5038745;28;20741;-59
2023/01/28 08:37:21;;;;;;;16.73;7.32;;;4.10;99.90;;;;;;5033602;28;20469;-60
2023/01/28 08:39:46;;;;;;;13.97;6.40;;;3.80;9.10;;;;;;5033632;28;20457;-62
2023/01/28 08:42:12;;;;;;;16.88;6.93;;;3.10;1.00;;;;;;5035294;28;20870;-60
2023/01/28 08:44:37;;;;;;;14.03;6.30;;;2.90;99.90;;;;;;5036198;28;20442;-61
2023/01/28 08:47:03;;;;;;;15.23;6.88;;;4.20;99.90;;;;;;5034803;28;20979;-61
2023/01/28 08:49:28;;;;;;;15.67;6.97;;;3.50;1.00;;;;;;5035596;28;20790;-59
2023/01/28 08:51:54;;;;;;;20.47;6.97;;;3.50;99.90;;;;;;5033344;28;20438;-60
2023/01/28 08:54:20;;;;;;;15.50;7.60;;;3.50;1.00;;;;;;5034265;28;20401;-61
2023/01/28 08:56:47;;;;;;;16.37;7.97;;;3.60;99.90;;;;;;5036621;28;20462;-61
2023/01/28 08:59:13;;;;;;;16.58;7.07;;;3.60;99.90;;;;;;5032486;28;20966;-62
2023/01/28 09:01:39;;;;;;;16.27;7.22;;;3.70;34.90;;;;;;5034139;28;20927;-60
2023/01/28 09:04:05;;;;;;;14.43;6.93;;;4.80;7.40;;;;;;5043881;28;20409;-61
2023/01/28 09:06:31;;;;;;;16.83;6.80;;;3.80;1.00;;;;;;5032946;28;20780;-61
2023/01/28 09:08:57;;;;;;;16.38;6.90;;;4.00;1.00;;;;;;5033021;28;20397;-61
2023/01/28 09:11:23;;;;;;;15.27;6.43;;;3.80;99.90;;;;;;5041167;28;20401;-60
2023/01/28 09:13:49;;;;;;;14.43;6.73;;;3.50;1.00;;;;;;5048195;28;20971;-62
2023/01/28 09:16:14;;;;;;;14.52;6.80;;;3.50;1.00;;;;;;5053579;28;20416;-61
2023/01/28 09:18:40;;;;;;;14.47;6.83;;;3.80;1.00;;;;;;5036445;28;20411;-61
2023/01/28 09:21:06;;;;;;;15.90;6.55;;;3.70;1.00;;;;;;5036702;28;20407;-61
2023/01/28 09:23:36;;;;;;;14.95;7.20;;;4.50;99.90;;;;;;5037359;28;20411;-61
2023/01/28 09:26:03;;;;;;;15.18;7.35;;;4.60;99.90;;;;;;5032378;28;20494;-61
2023/01/28 09:28:29;;;;;;;17.10;7.18;;;3.80;99.90;;;;;;5034846;28;20417;-61
2023/01/28 09:31:22;;;;;;;15.98;7.50;;;3.70;99.90;;;;;;5033552;28;20437;-61
2023/01/28 09:33:53;;;;;;;18.50;7.50;;;3.50;1.00;;;;;;5035685;28;20448;-62
2023/01/28 09:36:19;;;;;;;20.20;7.20;;;3.40;1.00;;;;;;5040417;28;20421;-61
2023/01/28 09:38:44;;;;;;;19.63;8.23;;;3.40;8.80;;;;;;5035429;28;20407;-61
2023/01/28 09:41:25;;;;;;;23.33;8.40;;;3.40;1.00;;;;;;5042622;28;20405;-60
2023/01/28 09:43:53;;;;;;;20.02;8.13;;;3.50;1.00;;;;;;5036654;28;20477;-59
2023/01/28 09:46:19;;;;;;;16.38;8.00;;;3.60;1.00;;;;;;5041691;28;20413;-61
2023/01/28 09:48:52;;;;;;;14.32;6.53;;;3.40;1.00;;;;;;5048384;28;20443;-62
2023/01/28 09:51:35;;;;;;;18.20;7.47;;;3.40;1.00;;;;;;5044239;28;20895;-61
2023/01/28 09:54:10;;;;;;;16.45;7.57;;;3.40;1.00;;;;;;5048925;28;20401;-61
2023/01/28 09:56:40;;;;;;;16.85;7.43;;;3.60;1.00;;;;;;5058477;28;20510;-61
2023/01/28 09:59:21;;;;;;;16.55;7.50;;;3.50;1.00;;;;;;5060320;28;20417;-61
2023/01/28 10:01:58;;;;;;;16.83;7.80;;;3.60;1.00;;;;;;5051214;28;20894;-61
2023/01/28 10:04:40;;;;;;;18.73;8.27;;;3.40;1.00;;;;;;5051170;28;20870;-61
2023/01/28 10:07:47;;;;;;;17.17;7.10;;;3.40;1.00;;;;;;5050284;28;20382;-61
2023/01/28 10:10:25;;;;;;;17.45;7.63;;;3.50;1.00;;;;;;5050069;28;20942;-61
2023/01/28 10:12:54;;;;;;;17.02;7.40;;;3.50;99.90;;;;;;5050154;28;20394;-59
2023/01/28 10:15:28;;;;;;;18.70;8.25;;;3.40;99.90;;;;;;5038608;28;20412;-61
2023/01/28 10:18:01;;;;;;;20.05;8.93;;;3.50;99.90;;;;;;5049748;28;20385;-59
2023/01/28 10:20:34;;;;;;;15.13;7.10;;;3.50;1.00;;;;;;5048421;28;20399;-61
2023/01/28 10:23:11;;;;;;;17.38;8.55;;;3.60;1.00;;;;;;5030226;28;20861;-61
2023/01/28 10:25:42;;;;;;;19.20;9.10;;;3.60;1.00;;;;;;5044114;28;20418;-59
2023/01/28 10:28:19;;;;;;;18.10;6.93;;;3.70;1.00;;;;;;5046178;28;20817;-60
2023/01/28 10:30:46;;;;;;;18.70;7.70;;;3.70;1.00;;;;;;5052156;28;20420;-60
2023/01/28 10:33:36;;;;;;;20.23;9.15;;;3.60;99.90;;;;;;5051602;28;20381;-62
2023/01/28 10:36:02;;;;;;;20.75;9.57;;;3.70;1.00;;;;;;5048937;28;20763;-59
2023/01/28 10:38:29;;;;;;;18.63;7.90;;;3.80;99.90;;;;;;5049800;28;20746;-60
2023/01/28 10:41:01;;;;;;;17.08;8.10;;;3.70;99.90;;;;;;5049331;28;20374;-60
2023/01/28 10:43:36;;;;;;;16.90;7.32;;;3.70;99.90;;;;;;5047090;28;20393;-60
2023/01/28 10:46:31;;;;;;;16.90;7.32;;;3.60;99.90;;;;;;5048760;28;20484;-61
2023/01/28 10:49:17;;;;;;;17.98;8.00;;;3.80;1.00;;;;;;5049561;28;20396;-61
2023/01/28 10:51:43;;;;;;;23.55;8.20;;;4.00;99.90;;;;;;5030501;28;20437;-62
2023/01/28 10:54:21;;;;;;;18.10;7.60;;;4.20;99.90;;;;;;5043825;28;20385;-61
2023/01/28 10:56:49;;;;;;;19.50;8.40;;;4.30;99.90;;;;;;5048467;28;20420;-61
2023/01/28 10:59:35;;;;;;;16.15;7.10;;;4.30;52.40;;;;;;5036404;28;20862;-61
2023/01/28 11:02:04;;;;;;;20.23;9.27;;;4.10;1.00;;;;;;5048309;28;20439;-62
2023/01/28 11:04:35;;;;;;;18.27;7.43;;;4.30;63.30;;;;;;5041120;28;20419;-62
2023/01/28 11:07:17;;;;;;;17.00;8.20;;;4.70;51.80;;;;;;5037334;28;20407;-63
2023/01/28 11:09:49;;;;;;;17.67;8.27;;;4.30;25.30;;;;;;5040306;28;21367;-62
2023/01/28 11:12:27;;;;;;;17.85;6.93;;;4.20;1.00;;;;;;5038108;28;21179;-62
2023/01/28 11:14:57;;;;;;;20.20;7.88;;;4.20;1.00;;;;;;5044174;28;20411;-60
2023/01/28 11:17:28;;;;;;;18.05;7.30;;;4.00;1.00;;;;;;5052568;28;20456;-59
2023/01/28 11:19:55;;;;;;;17.40;7.35;;;4.60;4.70;;;;;;5057283;28;20410;-64
2023/01/28 11:22:34;;;;;;;18.88;7.63;;;3.90;20.10;;;;;;5050030;28;20409;-59
2023/01/28 11:25:05;;;;;;;19.85;7.47;;;4.00;1.00;;;;;;5050800;28;20420;-58
2023/01/28 11:27:32;;;;;;;16.37;7.57;;;4.00;1.00;;;;;;5051737;28;20393;-58
2023/01/28 11:30:02;;;;;;;19.60;7.30;;;3.90;1.00;;;;;;5050381;28;20410;-59
2023/01/28 11:32:29;;;;;;;19.10;7.25;;;3.60;1.00;;;;;;5047113;28;20973;-58
2023/01/28 11:34:56;;;;;;;16.23;7.43;;;3.70;1.00;;;;;;5058605;28;20399;-57
2023/01/28 11:37:24;;;;;;;18.38;7.95;;;3.80;1.00;;;;;;5059619;28;20414;-58
2023/01/28 11:40:15;;;;;;;18.33;7.68;;;3.70;1.00;;;;;;5047584;28;20449;-58
2023/01/28 11:42:41;;;;;;;19.58;7.70;;;3.70;1.00;;;;;;5047931;28;20405;-58
2023/01/28 11:45:16;;;;;;;16.27;7.07;;;3.50;1.00;;;;;;5048496;28;20405;-58
2023/01/28 11:47:55;;;;;;;18.73;8.02;;;3.30;57.70;;;;;;5049527;28;20374;-59
2023/01/28 11:50:44;;;;;;;17.95;6.78;;;3.30;99.90;;;;;;5049341;28;20381;-60
2023/01/28 11:53:28;;;;;;;20.33;7.47;;;3.50;99.90;;;;;;5049024;28;20378;-60
2023/01/28 11:56:08;;;;;;;18.85;7.90;;;3.30;99.90;;;;;;5051079;28;20441;-60
2023/01/28 11:58:50;;;;;;;16.08;7.30;;;3.40;1.00;;;;;;5053592;28;20393;-60
2023/01/28 12:01:37;;;;;;;18.67;7.70;;;3.60;99.90;;;;;;5064961;28;20410;-58
2023/01/28 12:04:33;;;;;;;15.38;6.15;;;3.60;1.00;;;;;;5072530;28;20888;-59
2023/01/28 12:07:25;;;;;;;17.15;6.90;;;3.30;99.90;;;;;;5072841;28;20803;-60
2023/01/28 12:10:15;;;;;;;12.93;5.90;;;4.10;1.00;;;;;;5073587;28;20446;-59
2023/01/28 12:13:24;;;;;;;16.33;6.70;;;3.00;99.90;;;;;;5064000;28;20953;-60
2023/01/28 12:16:24;;;;;;;14.27;6.00;;;3.10;1.00;;;;;;5031745;28;20460;-60
2023/01/28 12:18:56;;;;;;;19.50;6.28;;;3.00;1.00;;;;;;5050989;28;20405;-60
2023/01/28 12:21:59;;;;;;;17.23;6.28;;;3.00;99.90;;;;;;5049899;28;20404;-60
2023/01/28 12:25:04;;;;;;;16.27;6.47;;;2.90;99.90;;;;;;5042642;28;20427;-59
2023/01/28 12:27:39;;;;;;;13.50;6.00;;;2.70;1.00;;;;;;5031602;28;20421;-59
2023/01/28 12:30:33;;;;;;;12.63;5.95;;;2.70;99.90;;;;;;5050510;28;21812;-59
2023/01/28 12:33:36;;;;;;;15.48;6.82;;;2.60;99.90;;;;;;5050064;28;20435;-59
2023/01/28 12:36:40;;;;;;;17.00;7.13;;;2.50;99.90;;;;;;5049360;28;20480;-59
2023/01/28 12:39:09;;;;;;;13.15;5.95;;;2.50;99.90;;;;;;5047661;28;20411;-61
2023/01/28 12:41:42;;;;;;;14.15;6.63;;;2.50;99.90;;;;;;5050127;28;20401;-59
2023/01/28 12:44:31;;;;;;;16.00;6.50;;;2.40;99.90;;;;;;5050358;28;20432;-60
2023/01/28 12:47:12;;;;;;;15.80;6.10;;;2.50;99.90;;;;;;5063600;28;20395;-58
2023/01/28 12:50:16;;;;;;;15.55;6.90;;;2.60;99.90;;;;;;5049467;28;20782;-59
2023/01/28 12:52:57;;;;;;;12.95;5.47;;;2.60;99.90;;;;;;5046133;28;20430;-59
2023/01/28 12:55:40;;;;;;;17.58;6.88;;;2.60;99.90;;;;;;5054687;28;20413;-59
2023/01/28 12:58:17;;;;;;;16.60;6.60;;;2.70;99.90;;;;;;5042875;28;20395;-59
2023/01/28 13:00:48;;;;;;;16.57;7.70;;;2.50;99.90;;;;;;5058381;28;20497;-59
2023/01/28 13:03:14;;;;;;;15.82;6.72;;;2.40;1.00;;;;;;5066034;28;20380;-58
2023/01/28 13:05:45;;;;;;;16.25;7.18;;;2.40;1.00;;;;;;5054741;28;20803;-58
2023/01/28 13:08:23;;;;;;;17.05;7.63;;;2.40;1.00;;;;;;5063829;28;20742;-59
2023/01/28 13:10:50;;;;;;;17.77;7.50;;;2.40;1.00;;;;;;5060201;28;20864;-59
2023/01/28 13:13:17;;;;;;;15.95;6.80;;;2.50;99.90;;;;;;5049916;28;20576;-59
2023/01/28 13:15:44;;;;;;;18.63;7.07;;;2.40;1.00;;;;;;5049807;28;20419;-59
2023/01/28 13:18:32;;;;;;;16.10;6.50;;;2.30;1.00;;;;;;5052493;28;20716;-60
2023/01/28 13:20:59;;;;;;;12.65;5.50;;;2.40;1.00;;;;;;5063651;28;20411;-59
2023/01/28 13:23:39;;;;;;;14.07;6.13;;;2.40;99.90;;;;;;5052586;28;20865;-60
2023/01/28 13:26:17;;;;;;;14.70;6.70;;;2.60;99.90;;;;;;5053542;28;20408;-60
2023/01/28 13:28:43;;;;;;;16.88;6.75;;;2.40;99.90;;;;;;5063776;28;20460;-59
2023/01/28 13:31:16;;;;;;;18.27;6.38;;;2.40;99.90;;;;;;5053970;28;20408;-60
2023/01/28 13:33:45;;;;;;;14.50;6.20;;;2.40;99.90;;;;;;5063755;28;20423;-60
2023/01/28 13:36:35;;;;;;;13.98;5.95;;;2.40;99.90;;;;;;5068321;28;20419;-60
2023/01/28 13:39:18;;;;;;;14.80;6.18;;;2.40;99.90;;;;;;5050504;28;20409;-59
2023/01/28 13:41:46;;;;;;;13.57;5.67;;;2.40;99.90;;;;;;5062495;28;20388;-60
2023/01/28 13:44:33;;;;;;;14.30;6.20;;;2.30;50.60;;;;;;5056414;28;20373;-60
2023/01/28 13:47:23;;;;;;;18.90;6.75;;;2.50;1.00;;;;;;5049410;28;20403;-59